sensor_id;sensor_type;location;lat;lon;timestamp;P1;durP1;ratioP1;P2;durP2;ratioP2
1140;SDS011;559;48.628;8.924;2023-03-14T00:02:11;137.68;;;129.18;;
1140;SDS011;559;48.628;8.924;2023-03-14T00:04:39;139.57;;;130.98;;
1140;SDS011;559;48.628;8.924;2023-03-14T00:07:06;148.23;;;139.20;;
1140;SDS011;559;48.628;8.924;2023-03-14T00:09:33;146.63;;;137.75;;
1140;SDS011;559;48.628;8.924;2023-03-14T00:12:02;141.90;;;133.10;;
1140;SDS011;559;48.628;8.924;2023-03-14T00:14:30;148.27;;;139.38;;
1140;SDS011;559;48.628;8.924;2023-03-14T00:16:58;148.20;;;139.30;;
1140;SDS011;559;48.628;8.924;2023-03-14T00:19:25;150.00;;;140.98;;
1140;SDS011;559;48.628;8.924;2023-03-14T00:21:52;152.95;;;143.88;;
1140;SDS011;559;48.628;8.924;2023-03-14T00:24:18;141.25;;;132.65;;
1140;SDS011;559;48.628;8.924;2023-03-14T00:26:45;143.00;;;134.40;;
1140;SDS011;559;48.628;8.924;2023-03-14T00:29:14;143.88;;;135.20;;
1140;SDS011;559;48.628;8.924;2023-03-14T00:31:41;137.50;;;129.00;;
1140;SDS011;559;48.628;8.924;2023-03-14T00:34:08;134.60;;;126.10;;
1140;SDS011;559;48.628;8.924;2023-03-14T00:36:35;138.95;;;130.43;;
1140;SDS011;559;48.628;8.924;2023-03-14T00:39:02;143.63;;;135.05;;
1140;SDS011;559;48.628;8.924;2023-03-14T00:41:29;140.40;;;131.70;;
1140;SDS011;559;48.628;8.924;2023-03-14T00:43:55;142.32;;;133.82;;
1140;SDS011;559;48.628;8.924;2023-03-14T00:46:23;136.60;;;127.45;;
1140;SDS011;559;48.628;8.924;2023-03-14T00:48:50;139.98;;;131.57;;
1140;SDS011;559;48.628;8.924;2023-03-14T00:51:16;142.32;;;133.88;;
1140;SDS011;559;48.628;8.924;2023-03-14T00:53:43;135.23;;;127.13;;
1140;SDS011;559;48.628;8.924;2023-03-14T00:56:10;140.75;;;132.35;;
1140;SDS011;559;48.628;8.924;2023-03-14T00:58:38;135.48;;;127.22;;
1140;SDS011;559;48.628;8.924;2023-03-14T01:01:05;134.95;;;126.75;;
1140;SDS011;559;48.628;8.924;2023-03-14T01:03:34;134.02;;;125.82;;
1140;SDS011;559;48.628;8.924;2023-03-14T01:06:10;136.88;;;128.68;;
1140;SDS011;559;48.628;8.924;2023-03-14T01:08:38;125.38;;;117.28;;
1140;SDS011;559;48.628;8.924;2023-03-14T01:11:06;130.55;;;122.45;;
1140;SDS011;559;48.628;8.924;2023-03-14T01:13:33;138.15;;;129.75;;
1140;SDS011;559;48.628;8.924;2023-03-14T01:16:01;137.05;;;128.85;;
1140;SDS011;559;48.628;8.924;2023-03-14T01:18:29;138.93;;;130.63;;
1140;SDS011;559;48.628;8.924;2023-03-14T01:20:57;139.98;;;131.77;;
1140;SDS011;559;48.628;8.924;2023-03-14T01:23:23;141.85;;;133.45;;
1140;SDS011;559;48.628;8.924;2023-03-14T01:25:50;138.23;;;130.02;;
1140;SDS011;559;48.628;8.924;2023-03-14T01:28:16;142.23;;;133.80;;
1140;SDS011;559;48.628;8.924;2023-03-14T01:30:43;145.45;;;137.15;;
1140;SDS011;559;48.628;8.924;2023-03-14T01:33:09;136.70;;;128.60;;
1140;SDS011;559;48.628;8.924;2023-03-14T01:35:36;146.30;;;138.00;;
1140;SDS011;559;48.628;8.924;2023-03-14T01:38:04;133.25;;;125.15;;
1140;SDS011;559;48.628;8.924;2023-03-14T01:40:30;131.02;;;123.03;;
1140;SDS011;559;48.628;8.924;2023-03-14T01:42:57;135.02;;;127.03;;
1140;SDS011;559;48.628;8.924;2023-03-14T01:48:45;132.98;;;124.97;;
1140;SDS011;559;48.628;8.924;2023-03-14T01:51:16;140.98;;;132.50;;
1140;SDS011;559;48.628;8.924;2023-03-14T01:53:47;146.68;;;138.27;;
1140;SDS011;559;48.628;8.924;2023-03-14T01:56:16;130.82;;;122.82;;
1140;SDS011;559;48.628;8.924;2023-03-14T01:58:44;133.45;;;125.35;;
1140;SDS011;559;48.628;8.924;2023-03-14T02:01:13;127.22;;;119.22;;
1140;SDS011;559;48.628;8.924;2023-03-14T02:03:44;133.88;;;125.78;;
1140;SDS011;559;48.628;8.924;2023-03-14T02:06:13;144.95;;;136.60;;
1140;SDS011;559;48.628;8.924;2023-03-14T02:08:41;146.40;;;138.00;;
1140;SDS011;559;48.628;8.924;2023-03-14T02:11:10;137.98;;;129.77;;
1140;SDS011;559;48.628;8.924;2023-03-14T02:13:36;137.63;;;129.43;;
1140;SDS011;559;48.628;8.924;2023-03-14T02:16:03;133.15;;;125.05;;
1140;SDS011;559;48.628;8.924;2023-03-14T02:18:30;132.02;;;124.03;;
1140;SDS011;559;48.628;8.924;2023-03-14T02:20:58;136.63;;;128.43;;
1140;SDS011;559;48.628;8.924;2023-03-14T02:23:28;143.73;;;135.32;;
1140;SDS011;559;48.628;8.924;2023-03-14T02:26:00;144.45;;;136.07;;
1140;SDS011;559;48.628;8.924;2023-03-14T02:28:31;145.50;;;136.93;;
1140;SDS011;559;48.628;8.924;2023-03-14T02:30:58;140.02;;;131.73;;
1140;SDS011;559;48.628;8.924;2023-03-14T02:33:24;141.00;;;132.70;;
1140;SDS011;559;48.628;8.924;2023-03-14T02:35:51;142.63;;;134.30;;
1140;SDS011;559;48.628;8.924;2023-03-14T02:38:23;151.60;;;143.00;;
1140;SDS011;559;48.628;8.924;2023-03-14T02:40:52;149.43;;;140.85;;
1140;SDS011;559;48.628;8.924;2023-03-14T02:43:19;145.05;;;136.65;;
1140;SDS011;559;48.628;8.924;2023-03-14T02:45:47;145.30;;;136.75;;
1140;SDS011;559;48.628;8.924;2023-03-14T02:48:15;139.88;;;131.57;;
1140;SDS011;559;48.628;8.924;2023-03-14T02:50:43;144.93;;;136.43;;
1140;SDS011;559;48.628;8.924;2023-03-14T02:53:12;140.23;;;132.13;;
1140;SDS011;559;48.628;8.924;2023-03-14T02:55:44;139.40;;;131.30;;
1140;SDS011;559;48.628;8.924;2023-03-14T02:58:11;139.55;;;131.45;;
1140;SDS011;559;48.628;8.924;2023-03-14T03:00:37;132.98;;;124.95;;
1140;SDS011;559;48.628;8.924;2023-03-14T03:03:05;133.07;;;125.10;;
1140;SDS011;559;48.628;8.924;2023-03-14T03:05:32;132.70;;;124.70;;
1140;SDS011;559;48.628;8.924;2023-03-14T03:07:58;132.85;;;124.95;;
1140;SDS011;559;48.628;8.924;2023-03-14T03:10:25;122.90;;;115.30;;
1140;SDS011;559;48.628;8.924;2023-03-14T03:12:52;122.05;;;114.55;;
1140;SDS011;559;48.628;8.924;2023-03-14T03:15:18;123.00;;;115.60;;
1140;SDS011;559;48.628;8.924;2023-03-14T03:17:45;120.32;;;113.03;;
1140;SDS011;559;48.628;8.924;2023-03-14T03:20:13;116.72;;;109.32;;
1140;SDS011;559;48.628;8.924;2023-03-14T03:22:39;117.95;;;110.55;;
1140;SDS011;559;48.628;8.924;2023-03-14T03:25:06;117.95;;;110.85;;
1140;SDS011;559;48.628;8.924;2023-03-14T03:27:34;121.65;;;114.55;;
1140;SDS011;559;48.628;8.924;2023-03-14T03:30:02;117.40;;;110.28;;
1140;SDS011;559;48.628;8.924;2023-03-14T03:32:30;117.38;;;110.38;;
1140;SDS011;559;48.628;8.924;2023-03-14T03:34:56;117.38;;;110.43;;
1140;SDS011;559;48.628;8.924;2023-03-14T03:37:24;117.35;;;110.45;;
1140;SDS011;559;48.628;8.924;2023-03-14T03:39:51;109.00;;;102.30;;
1140;SDS011;559;48.628;8.924;2023-03-14T03:42:17;122.45;;;115.35;;
1140;SDS011;559;48.628;8.924;2023-03-14T03:44:45;113.43;;;106.63;;
1140;SDS011;559;48.628;8.924;2023-03-14T03:47:12;112.85;;;106.05;;
1140;SDS011;559;48.628;8.924;2023-03-14T03:49:38;113.93;;;107.22;;
1140;SDS011;559;48.628;8.924;2023-03-14T03:52:05;114.95;;;108.15;;
1140;SDS011;559;48.628;8.924;2023-03-14T03:54:34;116.75;;;109.75;;
1140;SDS011;559;48.628;8.924;2023-03-14T03:57:01;113.13;;;106.47;;
1140;SDS011;559;48.628;8.924;2023-03-14T03:59:27;111.93;;;105.20;;
1140;SDS011;559;48.628;8.924;2023-03-14T04:01:54;109.75;;;102.95;;
1140;SDS011;559;48.628;8.924;2023-03-14T04:04:20;114.80;;;108.10;;
1140;SDS011;559;48.628;8.924;2023-03-14T04:06:47;110.00;;;103.53;;
1140;SDS011;559;48.628;8.924;2023-03-14T04:09:13;107.00;;;100.57;;
1140;SDS011;559;48.628;8.924;2023-03-14T04:11:41;101.70;;;95.40;;
1140;SDS011;559;48.628;8.924;2023-03-14T04:14:08;106.97;;;100.47;;
1140;SDS011;559;48.628;8.924;2023-03-14T04:16:34;103.05;;;96.75;;
1140;SDS011;559;48.628;8.924;2023-03-14T04:19:01;102.13;;;96.03;;
1140;SDS011;559;48.628;8.924;2023-03-14T04:21:27;104.97;;;98.78;;
1140;SDS011;559;48.628;8.924;2023-03-14T04:23:54;102.18;;;95.82;;
1140;SDS011;559;48.628;8.924;2023-03-14T04:26:20;97.15;;;91.25;;
1140;SDS011;559;48.628;8.924;2023-03-14T04:28:48;99.05;;;93.03;;
1140;SDS011;559;48.628;8.924;2023-03-14T04:31:16;99.30;;;93.25;;
1140;SDS011;559;48.628;8.924;2023-03-14T04:33:43;101.18;;;95.10;;
1140;SDS011;559;48.628;8.924;2023-03-14T04:36:10;99.75;;;93.75;;
1140;SDS011;559;48.628;8.924;2023-03-14T04:38:36;106.78;;;100.47;;
1140;SDS011;559;48.628;8.924;2023-03-14T04:41:03;101.80;;;95.35;;
1140;SDS011;559;48.628;8.924;2023-03-14T04:43:30;101.68;;;95.68;;
1140;SDS011;559;48.628;8.924;2023-03-14T04:45:58;98.32;;;92.22;;
1140;SDS011;559;48.628;8.924;2023-03-14T04:48:25;103.60;;;97.22;;
1140;SDS011;559;48.628;8.924;2023-03-14T04:50:51;101.78;;;95.65;;
1140;SDS011;559;48.628;8.924;2023-03-14T04:53:18;102.70;;;96.60;;
1140;SDS011;559;48.628;8.924;2023-03-14T04:55:47;100.10;;;93.88;;
1140;SDS011;559;48.628;8.924;2023-03-14T04:58:14;107.70;;;101.50;;
1140;SDS011;559;48.628;8.924;2023-03-14T05:00:41;109.35;;;103.25;;
1140;SDS011;559;48.628;8.924;2023-03-14T05:03:08;102.03;;;96.00;;
1140;SDS011;559;48.628;8.924;2023-03-14T05:05:35;107.07;;;100.78;;
1140;SDS011;559;48.628;8.924;2023-03-14T05:08:01;108.00;;;101.80;;
1140;SDS011;559;48.628;8.924;2023-03-14T05:10:28;105.35;;;99.25;;
1140;SDS011;559;48.628;8.924;2023-03-14T05:12:54;112.55;;;106.03;;
1140;SDS011;559;48.628;8.924;2023-03-14T05:15:21;107.55;;;101.25;;
1140;SDS011;559;48.628;8.924;2023-03-14T05:17:47;110.03;;;103.82;;
1140;SDS011;559;48.628;8.924;2023-03-14T05:20:16;105.20;;;99.05;;
1140;SDS011;559;48.628;8.924;2023-03-14T05:22:43;101.00;;;95.15;;
1140;SDS011;559;48.628;8.924;2023-03-14T05:25:09;97.28;;;91.20;;
1140;SDS011;559;48.628;8.924;2023-03-14T05:27:36;98.63;;;92.80;;
1140;SDS011;559;48.628;8.924;2023-03-14T05:30:03;99.15;;;93.40;;
1140;SDS011;559;48.628;8.924;2023-03-14T05:32:30;108.78;;;102.68;;
1140;SDS011;559;48.628;8.924;2023-03-14T05:34:56;113.95;;;107.63;;
1140;SDS011;559;48.628;8.924;2023-03-14T05:37:26;114.65;;;108.30;;
1140;SDS011;559;48.628;8.924;2023-03-14T05:39:52;110.55;;;104.45;;
1140;SDS011;559;48.628;8.924;2023-03-14T05:42:19;109.20;;;103.10;;
1140;SDS011;559;48.628;8.924;2023-03-14T05:44:46;106.45;;;100.35;;
1140;SDS011;559;48.628;8.924;2023-03-14T05:47:12;109.90;;;103.80;;
1140;SDS011;559;48.628;8.924;2023-03-14T05:49:39;100.78;;;95.07;;
1140;SDS011;559;48.628;8.924;2023-03-14T05:52:05;103.43;;;97.53;;
1140;SDS011;559;48.628;8.924;2023-03-14T05:54:33;98.95;;;93.05;;
1140;SDS011;559;48.628;8.924;2023-03-14T05:57:00;107.97;;;101.78;;
1140;SDS011;559;48.628;8.924;2023-03-14T05:59:27;100.28;;;94.47;;
1140;SDS011;559;48.628;8.924;2023-03-14T06:01:53;100.13;;;94.53;;
1140;SDS011;559;48.628;8.924;2023-03-14T06:04:20;96.13;;;90.53;;
1140;SDS011;559;48.628;8.924;2023-03-14T06:06:46;97.25;;;91.70;;
1140;SDS011;559;48.628;8.924;2023-03-14T06:09:13;97.63;;;92.22;;
1140;SDS011;559;48.628;8.924;2023-03-14T06:11:41;92.72;;;87.43;;
1140;SDS011;559;48.628;8.924;2023-03-14T06:14:07;98.57;;;93.07;;
1140;SDS011;559;48.628;8.924;2023-03-14T06:16:34;92.55;;;87.35;;
1140;SDS011;559;48.628;8.924;2023-03-14T06:19:00;87.75;;;82.75;;
1140;SDS011;559;48.628;8.924;2023-03-14T06:21:27;90.85;;;85.82;;
1140;SDS011;559;48.628;8.924;2023-03-14T06:23:53;92.13;;;87.03;;
1140;SDS011;559;48.628;8.924;2023-03-14T06:26:20;90.43;;;85.40;;
1140;SDS011;559;48.628;8.924;2023-03-14T06:28:48;89.55;;;84.65;;
1140;SDS011;559;48.628;8.924;2023-03-14T06:31:15;90.38;;;85.32;;
1140;SDS011;559;48.628;8.924;2023-03-14T06:33:42;89.65;;;84.78;;
1140;SDS011;559;48.628;8.924;2023-03-14T06:36:09;90.75;;;85.95;;
1140;SDS011;559;48.628;8.924;2023-03-14T06:38:35;85.30;;;80.60;;
1140;SDS011;559;48.628;8.924;2023-03-14T06:41:03;85.63;;;80.93;;
1140;SDS011;559;48.628;8.924;2023-03-14T06:43:30;83.68;;;79.07;;
1140;SDS011;559;48.628;8.924;2023-03-14T06:45:58;83.22;;;78.72;;
1140;SDS011;559;48.628;8.924;2023-03-14T06:48:24;85.72;;;81.15;;
1140;SDS011;559;48.628;8.924;2023-03-14T06:50:51;80.90;;;76.70;;
1140;SDS011;559;48.628;8.924;2023-03-14T06:53:17;82.10;;;77.55;;
1140;SDS011;559;48.628;8.924;2023-03-14T06:55:44;79.18;;;74.82;;
1140;SDS011;559;48.628;8.924;2023-03-14T06:58:11;80.10;;;76.00;;
1140;SDS011;559;48.628;8.924;2023-03-14T07:00:37;77.85;;;73.53;;
1140;SDS011;559;48.628;8.924;2023-03-14T07:03:05;79.85;;;75.55;;
1140;SDS011;559;48.628;8.924;2023-03-14T07:05:32;74.30;;;70.28;;
1140;SDS011;559;48.628;8.924;2023-03-14T07:07:59;75.80;;;71.70;;
1140;SDS011;559;48.628;8.924;2023-03-14T07:10:25;77.28;;;73.28;;
1140;SDS011;559;48.628;8.924;2023-03-14T07:12:52;75.00;;;71.00;;
1140;SDS011;559;48.628;8.924;2023-03-14T07:15:18;80.03;;;75.93;;
1140;SDS011;559;48.628;8.924;2023-03-14T07:17:46;75.47;;;71.57;;
1140;SDS011;559;48.628;8.924;2023-03-14T07:20:14;75.60;;;71.78;;
1140;SDS011;559;48.628;8.924;2023-03-14T07:22:41;69.95;;;66.35;;
1140;SDS011;559;48.628;8.924;2023-03-14T07:25:08;81.13;;;73.70;;
1140;SDS011;559;48.628;8.924;2023-03-14T07:27:37;78.45;;;72.03;;
1140;SDS011;559;48.628;8.924;2023-03-14T07:30:04;66.25;;;62.95;;
1140;SDS011;559;48.628;8.924;2023-03-14T07:32:31;66.28;;;62.88;;
1140;SDS011;559;48.628;8.924;2023-03-14T07:34:57;67.47;;;63.92;;
1140;SDS011;559;48.628;8.924;2023-03-14T07:37:25;64.72;;;61.42;;
1140;SDS011;559;48.628;8.924;2023-03-14T07:39:52;64.60;;;61.40;;
1140;SDS011;559;48.628;8.924;2023-03-14T07:42:18;63.85;;;60.95;;
1140;SDS011;559;48.628;8.924;2023-03-14T07:44:45;65.35;;;62.25;;
1140;SDS011;559;48.628;8.924;2023-03-14T07:47:11;64.10;;;61.00;;
1140;SDS011;559;48.628;8.924;2023-03-14T07:49:38;62.55;;;59.63;;
1140;SDS011;559;48.628;8.924;2023-03-14T07:52:04;60.97;;;58.15;;
1140;SDS011;559;48.628;8.924;2023-03-14T07:54:32;59.25;;;56.75;;
1140;SDS011;559;48.628;8.924;2023-03-14T07:56:58;61.38;;;58.88;;
1140;SDS011;559;48.628;8.924;2023-03-14T07:59:25;57.95;;;55.55;;
1140;SDS011;559;48.628;8.924;2023-03-14T08:01:52;57.60;;;55.28;;
1140;SDS011;559;48.628;8.924;2023-03-14T08:04:19;58.00;;;55.50;;
1140;SDS011;559;48.628;8.924;2023-03-14T08:06:45;55.55;;;53.33;;
1140;SDS011;559;48.628;8.924;2023-03-14T08:09:12;56.10;;;53.88;;
1140;SDS011;559;48.628;8.924;2023-03-14T08:11:40;51.05;;;49.25;;
1140;SDS011;559;48.628;8.924;2023-03-14T08:14:06;51.05;;;49.05;;
1140;SDS011;559;48.628;8.924;2023-03-14T08:16:33;49.88;;;48.17;;
1140;SDS011;559;48.628;8.924;2023-03-14T08:18:59;48.75;;;46.88;;
1140;SDS011;559;48.628;8.924;2023-03-14T08:21:26;49.05;;;47.35;;
1140;SDS011;559;48.628;8.924;2023-03-14T08:23:52;48.47;;;46.97;;
1140;SDS011;559;48.628;8.924;2023-03-14T08:26:19;48.75;;;47.15;;
1140;SDS011;559;48.628;8.924;2023-03-14T08:28:47;50.35;;;48.60;;
1140;SDS011;559;48.628;8.924;2023-03-14T08:31:14;50.17;;;48.47;;
1140;SDS011;559;48.628;8.924;2023-03-14T08:33:40;52.55;;;50.75;;
1140;SDS011;559;48.628;8.924;2023-03-14T08:36:07;55.42;;;53.33;;
1140;SDS011;559;48.628;8.924;2023-03-14T08:38:34;58.17;;;55.80;;
1140;SDS011;559;48.628;8.924;2023-03-14T08:41:01;58.00;;;55.70;;
1140;SDS011;559;48.628;8.924;2023-03-14T08:43:29;58.33;;;55.90;;
1140;SDS011;559;48.628;8.924;2023-03-14T08:45:58;59.10;;;56.50;;
1140;SDS011;559;48.628;8.924;2023-03-14T08:48:25;62.42;;;59.63;;
1140;SDS011;559;48.628;8.924;2023-03-14T08:50:52;68.95;;;65.88;;
1140;SDS011;559;48.628;8.924;2023-03-14T08:53:18;65.85;;;62.95;;
1140;SDS011;559;48.628;8.924;2023-03-14T08:55:47;63.72;;;60.85;;
1140;SDS011;559;48.628;8.924;2023-03-14T08:58:13;66.05;;;63.03;;
1140;SDS011;559;48.628;8.924;2023-03-14T09:00:40;80.45;;;76.25;;
1140;SDS011;559;48.628;8.924;2023-03-14T09:03:07;68.25;;;64.63;;
1140;SDS011;559;48.628;8.924;2023-03-14T09:05:34;65.55;;;62.38;;
1140;SDS011;559;48.628;8.924;2023-03-14T09:08:00;64.70;;;61.80;;
1140;SDS011;559;48.628;8.924;2023-03-14T09:10:27;71.68;;;68.07;;
1140;SDS011;559;48.628;8.924;2023-03-14T09:12:54;65.53;;;62.55;;
1140;SDS011;559;48.628;8.924;2023-03-14T09:15:22;71.22;;;67.80;;
1140;SDS011;559;48.628;8.924;2023-03-14T09:17:48;64.60;;;61.50;;
1140;SDS011;559;48.628;8.924;2023-03-14T09:20:16;65.13;;;62.13;;
1140;SDS011;559;48.628;8.924;2023-03-14T09:22:43;64.40;;;61.20;;
1140;SDS011;559;48.628;8.924;2023-03-14T09:25:10;66.22;;;63.22;;
1140;SDS011;559;48.628;8.924;2023-03-14T09:27:36;63.15;;;60.25;;
1140;SDS011;559;48.628;8.924;2023-03-14T09:30:03;64.18;;;60.95;;
1140;SDS011;559;48.628;8.924;2023-03-14T09:32:30;62.95;;;60.15;;
1140;SDS011;559;48.628;8.924;2023-03-14T09:34:57;63.10;;;60.30;;
1140;SDS011;559;48.628;8.924;2023-03-14T09:37:25;64.97;;;62.13;;
1140;SDS011;559;48.628;8.924;2023-03-14T09:39:51;62.95;;;59.95;;
1140;SDS011;559;48.628;8.924;2023-03-14T09:42:19;64.63;;;61.72;;
1140;SDS011;559;48.628;8.924;2023-03-14T09:44:51;65.53;;;62.53;;
1140;SDS011;559;48.628;8.924;2023-03-14T09:47:20;63.75;;;60.75;;
1140;SDS011;559;48.628;8.924;2023-03-14T09:49:47;65.63;;;62.70;;
1140;SDS011;559;48.628;8.924;2023-03-14T09:52:15;64.90;;;62.00;;
1140;SDS011;559;48.628;8.924;2023-03-14T09:54:44;67.38;;;64.38;;
1140;SDS011;559;48.628;8.924;2023-03-14T09:57:14;66.75;;;63.75;;
1140;SDS011;559;48.628;8.924;2023-03-14T09:59:43;67.45;;;64.45;;
1140;SDS011;559;48.628;8.924;2023-03-14T10:02:11;64.80;;;61.90;;
1140;SDS011;559;48.628;8.924;2023-03-14T10:04:41;64.75;;;62.03;;
1140;SDS011;559;48.628;8.924;2023-03-14T10:07:09;62.97;;;60.47;;
1140;SDS011;559;48.628;8.924;2023-03-14T10:09:39;62.85;;;60.35;;
1140;SDS011;559;48.628;8.924;2023-03-14T10:12:08;63.70;;;61.15;;
1140;SDS011;559;48.628;8.924;2023-03-14T10:14:35;60.25;;;58.05;;
1140;SDS011;559;48.628;8.924;2023-03-14T10:17:04;59.40;;;57.20;;
1140;SDS011;559;48.628;8.924;2023-03-14T10:19:32;59.65;;;57.45;;
1140;SDS011;559;48.628;8.924;2023-03-14T10:22:01;60.60;;;58.45;;
1140;SDS011;559;48.628;8.924;2023-03-14T10:24:29;60.00;;;57.90;;
1140;SDS011;559;48.628;8.924;2023-03-14T10:26:57;60.28;;;58.08;;
1140;SDS011;559;48.628;8.924;2023-03-14T10:29:28;59.25;;;57.25;;
1140;SDS011;559;48.628;8.924;2023-03-14T10:31:56;58.20;;;56.20;;
1140;SDS011;559;48.628;8.924;2023-03-14T10:34:26;58.95;;;56.95;;
1140;SDS011;559;48.628;8.924;2023-03-14T10:36:55;60.20;;;58.00;;
1140;SDS011;559;48.628;8.924;2023-03-14T10:39:24;61.35;;;59.15;;
1140;SDS011;559;48.628;8.924;2023-03-14T10:41:53;60.30;;;57.95;;
1140;SDS011;559;48.628;8.924;2023-03-14T10:44:22;62.65;;;59.95;;
1140;SDS011;559;48.628;8.924;2023-03-14T10:46:56;64.55;;;61.67;;
1140;SDS011;559;48.628;8.924;2023-03-14T10:49:26;65.90;;;63.10;;
1140;SDS011;559;48.628;8.924;2023-03-14T10:51:54;65.60;;;62.80;;
1140;SDS011;559;48.628;8.924;2023-03-14T10:54:21;65.82;;;62.95;;
1140;SDS011;559;48.628;8.924;2023-03-14T10:56:56;69.93;;;66.82;;
1140;SDS011;559;48.628;8.924;2023-03-14T10:59:23;68.38;;;65.28;;
1140;SDS011;559;48.628;8.924;2023-03-14T11:01:51;69.68;;;66.63;;
1140;SDS011;559;48.628;8.924;2023-03-14T11:04:26;70.60;;;67.10;;
1140;SDS011;559;48.628;8.924;2023-03-14T11:07:04;72.90;;;69.40;;
1140;SDS011;559;48.628;8.924;2023-03-14T11:09:36;70.05;;;66.65;;
1140;SDS011;559;48.628;8.924;2023-03-14T11:12:09;74.05;;;70.45;;
1140;SDS011;559;48.628;8.924;2023-03-14T11:14:46;78.95;;;74.75;;
1140;SDS011;559;48.628;8.924;2023-03-14T11:17:16;84.13;;;79.05;;
1140;SDS011;559;48.628;8.924;2023-03-14T11:19:52;83.32;;;78.70;;
1140;SDS011;559;48.628;8.924;2023-03-14T11:22:24;86.78;;;81.68;;
1140;SDS011;559;48.628;8.924;2023-03-14T11:27:41;91.22;;;86.10;;
1140;SDS011;559;48.628;8.924;2023-03-14T11:30:14;89.47;;;84.47;;
1140;SDS011;559;48.628;8.924;2023-03-14T11:32:44;90.45;;;85.00;;
1140;SDS011;559;48.628;8.924;2023-03-14T11:35:16;97.63;;;91.07;;
1140;SDS011;559;48.628;8.924;2023-03-14T11:37:46;88.78;;;83.47;;
1140;SDS011;559;48.628;8.924;2023-03-14T11:40:14;91.72;;;86.00;;
1140;SDS011;559;48.628;8.924;2023-03-14T11:42:43;97.53;;;90.82;;
1140;SDS011;559;48.628;8.924;2023-03-14T11:45:13;93.10;;;87.50;;
1140;SDS011;559;48.628;8.924;2023-03-14T11:47:43;91.75;;;86.55;;
1140;SDS011;559;48.628;8.924;2023-03-14T11:50:12;90.65;;;85.45;;
1140;SDS011;559;48.628;8.924;2023-03-14T11:52:44;94.93;;;89.38;;
1140;SDS011;559;48.628;8.924;2023-03-14T11:55:16;95.13;;;89.93;;
1140;SDS011;559;48.628;8.924;2023-03-14T11:57:44;95.53;;;90.32;;
1140;SDS011;559;48.628;8.924;2023-03-14T12:00:13;93.55;;;88.35;;
1140;SDS011;559;48.628;8.924;2023-03-14T12:02:44;99.60;;;94.22;;
1140;SDS011;559;48.628;8.924;2023-03-14T12:10:53;91.88;;;86.57;;
1140;SDS011;559;48.628;8.924;2023-03-14T12:13:21;86.47;;;81.80;;
1140;SDS011;559;48.628;8.924;2023-03-14T12:15:48;87.95;;;83.22;;
1140;SDS011;559;48.628;8.924;2023-03-14T12:18:19;78.63;;;74.32;;
1140;SDS011;559;48.628;8.924;2023-03-14T12:20:51;82.47;;;78.15;;
1140;SDS011;559;48.628;8.924;2023-03-14T12:23:19;82.07;;;77.80;;
1140;SDS011;559;48.628;8.924;2023-03-14T12:25:46;86.50;;;81.80;;
1140;SDS011;559;48.628;8.924;2023-03-14T12:28:17;79.20;;;74.90;;
1140;SDS011;559;48.628;8.924;2023-03-14T12:30:45;76.57;;;72.78;;
1140;SDS011;559;48.628;8.924;2023-03-14T12:33:25;76.22;;;73.22;;
1140;SDS011;559;48.628;8.924;2023-03-14T12:36:04;61.67;;;59.95;;
1140;SDS011;559;48.628;8.924;2023-03-14T12:41:25;50.70;;;49.30;;
1140;SDS011;559;48.628;8.924;2023-03-14T12:43:53;52.58;;;50.88;;
1140;SDS011;559;48.628;8.924;2023-03-14T12:46:21;48.63;;;47.40;;
1140;SDS011;559;48.628;8.924;2023-03-14T12:48:49;50.40;;;48.95;;
1140;SDS011;559;48.628;8.924;2023-03-14T12:51:19;50.00;;;48.70;;
1140;SDS011;559;48.628;8.924;2023-03-14T12:53:51;51.75;;;50.35;;
1140;SDS011;559;48.628;8.924;2023-03-14T12:56:36;54.92;;;53.42;;
1140;SDS011;559;48.628;8.924;2023-03-14T12:59:15;53.50;;;51.97;;
1140;SDS011;559;48.628;8.924;2023-03-14T13:01:55;25.05;;;24.35;;
1140;SDS011;559;48.628;8.924;2023-03-14T13:04:28;29.20;;;28.50;;
1140;SDS011;559;48.628;8.924;2023-03-14T13:06:59;23.73;;;23.15;;
1140;SDS011;559;48.628;8.924;2023-03-14T13:12:27;32.90;;;31.80;;
1140;SDS011;559;48.628;8.924;2023-03-14T13:14:57;46.03;;;44.78;;
1140;SDS011;559;48.628;8.924;2023-03-14T13:17:26;41.95;;;40.85;;
1140;SDS011;559;48.628;8.924;2023-03-14T13:19:55;37.22;;;36.13;;
1140;SDS011;559;48.628;8.924;2023-03-14T13:22:27;36.08;;;35.17;;
1140;SDS011;559;48.628;8.924;2023-03-14T13:24:59;29.27;;;28.48;;
1140;SDS011;559;48.628;8.924;2023-03-14T13:27:26;26.00;;;24.95;;
1140;SDS011;559;48.628;8.924;2023-03-14T13:29:56;33.65;;;32.72;;
1140;SDS011;559;48.628;8.924;2023-03-14T13:32:25;23.67;;;23.08;;
1140;SDS011;559;48.628;8.924;2023-03-14T13:34:55;20.52;;;19.88;;
1140;SDS011;559;48.628;8.924;2023-03-14T13:37:23;24.63;;;23.73;;
1140;SDS011;559;48.628;8.924;2023-03-14T13:39:52;23.98;;;23.00;;
1140;SDS011;559;48.628;8.924;2023-03-14T13:42:21;19.17;;;18.60;;
1140;SDS011;559;48.628;8.924;2023-03-14T13:44:51;18.00;;;17.17;;
1140;SDS011;559;48.628;8.924;2023-03-14T13:47:18;19.80;;;19.13;;
1140;SDS011;559;48.628;8.924;2023-03-14T13:49:46;17.40;;;16.80;;
1140;SDS011;559;48.628;8.924;2023-03-14T13:52:26;16.48;;;15.98;;
1140;SDS011;559;48.628;8.924;2023-03-14T13:54:55;18.15;;;17.23;;
1140;SDS011;559;48.628;8.924;2023-03-14T13:57:22;14.52;;;14.02;;
1140;SDS011;559;48.628;8.924;2023-03-14T13:59:58;12.25;;;11.77;;
1140;SDS011;559;48.628;8.924;2023-03-14T14:02:26;9.95;;;9.75;;
1140;SDS011;559;48.628;8.924;2023-03-14T14:04:53;9.68;;;9.45;;
1140;SDS011;559;48.628;8.924;2023-03-14T14:07:20;7.57;;;7.38;;
1140;SDS011;559;48.628;8.924;2023-03-14T14:09:48;8.95;;;8.75;;
1140;SDS011;559;48.628;8.924;2023-03-14T14:12:16;8.85;;;8.55;;
1140;SDS011;559;48.628;8.924;2023-03-14T14:14:44;3.95;;;3.63;;
1140;SDS011;559;48.628;8.924;2023-03-14T14:17:14;4.82;;;4.72;;
1140;SDS011;559;48.628;8.924;2023-03-14T14:19:44;4.95;;;4.75;;
1140;SDS011;559;48.628;8.924;2023-03-14T14:22:11;4.43;;;4.32;;
1140;SDS011;559;48.628;8.924;2023-03-14T14:24:38;3.20;;;3.10;;
1140;SDS011;559;48.628;8.924;2023-03-14T14:27:12;3.83;;;3.55;;
1140;SDS011;559;48.628;8.924;2023-03-14T14:29:41;3.42;;;3.33;;
1140;SDS011;559;48.628;8.924;2023-03-14T14:32:11;3.83;;;3.05;;
1140;SDS011;559;48.628;8.924;2023-03-14T14:34:39;2.45;;;2.05;;
1140;SDS011;559;48.628;8.924;2023-03-14T14:37:15;2.25;;;2.15;;
1140;SDS011;559;48.628;8.924;2023-03-14T14:39:44;2.58;;;2.47;;
1140;SDS011;559;48.628;8.924;2023-03-14T14:42:14;4.70;;;1.88;;
1140;SDS011;559;48.628;8.924;2023-03-14T14:44:41;2.20;;;2.08;;
1140;SDS011;559;48.628;8.924;2023-03-14T14:47:11;1.60;;;1.50;;
1140;SDS011;559;48.628;8.924;2023-03-14T14:49:39;2.05;;;1.77;;
1140;SDS011;559;48.628;8.924;2023-03-14T14:52:06;2.20;;;1.92;;
1140;SDS011;559;48.628;8.924;2023-03-14T14:54:37;2.05;;;1.95;;
1140;SDS011;559;48.628;8.924;2023-03-14T14:57:05;5.57;;;1.83;;
1140;SDS011;559;48.628;8.924;2023-03-14T14:59:42;2.03;;;1.75;;
1140;SDS011;559;48.628;8.924;2023-03-14T15:02:15;1.70;;;1.60;;
1140;SDS011;559;48.628;8.924;2023-03-14T15:04:51;2.10;;;1.90;;
1140;SDS011;559;48.628;8.924;2023-03-14T15:07:17;2.88;;;2.63;;
1140;SDS011;559;48.628;8.924;2023-03-14T15:09:44;3.97;;;1.92;;
1140;SDS011;559;48.628;8.924;2023-03-14T15:12:10;2.15;;;1.10;;
1140;SDS011;559;48.628;8.924;2023-03-14T15:14:37;2.05;;;1.95;;
1140;SDS011;559;48.628;8.924;2023-03-14T15:17:08;3.13;;;2.92;;
1140;SDS011;559;48.628;8.924;2023-03-14T15:19:36;2.80;;;2.60;;